Terminal Aerodrome Forecast
Issued by NWS Grand Forks, ND

Home | Current Version | Previous Version | Text Only | Print | Product List | Glossary Off
Versions: 1 2 3 4 5 6 7 8 9 10 11 12 13 14 15

176
FTUS43 KFGF 181128
TAFGFK
TAF
KGFK 181128Z 1812/1912 22004KT P6SM SCT150
     FM181400 VRB04KT P6SM VCTS BKN070CB
      TEMPO 1815/1816 3SM -TSRA BKN035CB
     FM181700 30006KT P6SM SCT110
     FM190100 VRB04KT P6SM FEW250=

USA.gov is the U.S. government's official web portal to all federal, state and local government web resources and services.